sensor_id;sensor_type;location;lat;lon;timestamp;temperature;humidity
506;DHT22;551;48.524;9.056;2023-06-01T00:01:45;15.30;1.00
506;DHT22;551;48.524;9.056;2023-06-01T00:04:11;15.30;1.00
506;DHT22;551;48.524;9.056;2023-06-01T00:06:38;15.30;1.00
506;DHT22;551;48.524;9.056;2023-06-01T00:09:04;15.20;1.00
506;DHT22;551;48.524;9.056;2023-06-01T00:11:30;15.10;1.00
506;DHT22;551;48.524;9.056;2023-06-01T00:13:56;15.10;1.00
506;DHT22;551;48.524;9.056;2023-06-01T00:16:21;15.10;1.00
506;DHT22;551;48.524;9.056;2023-06-01T00:18:50;15.00;1.00
506;DHT22;551;48.524;9.056;2023-06-01T00:21:21;15.00;1.00
506;DHT22;551;48.524;9.056;2023-06-01T00:23:47;14.90;1.00
506;DHT22;551;48.524;9.056;2023-06-01T00:26:13;14.90;1.00
506;DHT22;551;48.524;9.056;2023-06-01T00:28:39;14.80;1.00
506;DHT22;551;48.524;9.056;2023-06-01T00:31:04;14.80;1.00
506;DHT22;551;48.524;9.056;2023-06-01T00:33:30;14.80;1.00
506;DHT22;551;48.524;9.056;2023-06-01T00:35:56;14.70;1.00
506;DHT22;551;48.524;9.056;2023-06-01T00:38:21;14.70;1.00
506;DHT22;551;48.524;9.056;2023-06-01T00:40:47;14.60;1.00
506;DHT22;551;48.524;9.056;2023-06-01T00:43:15;14.60;1.00
506;DHT22;551;48.524;9.056;2023-06-01T00:45:41;14.60;1.00
506;DHT22;551;48.524;9.056;2023-06-01T00:48:07;14.60;1.00
506;DHT22;551;48.524;9.056;2023-06-01T00:50:32;14.50;1.00
506;DHT22;551;48.524;9.056;2023-06-01T00:52:59;14.40;1.00
506;DHT22;551;48.524;9.056;2023-06-01T00:55:26;14.40;1.00
506;DHT22;551;48.524;9.056;2023-06-01T00:57:52;14.40;1.00
506;DHT22;551;48.524;9.056;2023-06-01T01:00:19;14.30;1.00
506;DHT22;551;48.524;9.056;2023-06-01T01:02:45;14.30;1.00
506;DHT22;551;48.524;9.056;2023-06-01T01:05:10;14.30;1.00
506;DHT22;551;48.524;9.056;2023-06-01T01:12:54;14.10;1.00
506;DHT22;551;48.524;9.056;2023-06-01T01:15:32;14.10;1.00
506;DHT22;551;48.524;9.056;2023-06-01T01:18:06;14.00;1.00
506;DHT22;551;48.524;9.056;2023-06-01T01:20:40;13.90;1.00
506;DHT22;551;48.524;9.056;2023-06-01T01:29:00;13.60;1.00
506;DHT22;551;48.524;9.056;2023-06-01T01:31:30;13.60;1.00
506;DHT22;551;48.524;9.056;2023-06-01T01:33:57;13.60;1.00
506;DHT22;551;48.524;9.056;2023-06-01T01:36:24;13.60;1.00
506;DHT22;551;48.524;9.056;2023-06-01T01:38:51;13.60;1.00
506;DHT22;551;48.524;9.056;2023-06-01T01:41:17;13.60;1.00
506;DHT22;551;48.524;9.056;2023-06-01T01:43:44;13.50;1.00
506;DHT22;551;48.524;9.056;2023-06-01T01:46:18;13.50;1.00
506;DHT22;551;48.524;9.056;2023-06-01T01:49:18;13.40;1.00
506;DHT22;551;48.524;9.056;2023-06-01T01:51:52;13.40;1.00
506;DHT22;551;48.524;9.056;2023-06-01T01:54:19;13.30;1.00
506;DHT22;551;48.524;9.056;2023-06-01T01:56:46;13.20;1.00
506;DHT22;551;48.524;9.056;2023-06-01T01:59:12;13.10;1.00
506;DHT22;551;48.524;9.056;2023-06-01T02:01:37;13.10;1.00
506;DHT22;551;48.524;9.056;2023-06-01T02:04:07;13.10;1.00
506;DHT22;551;48.524;9.056;2023-06-01T02:06:33;13.10;1.00
506;DHT22;551;48.524;9.056;2023-06-01T02:08:59;13.10;1.00
506;DHT22;551;48.524;9.056;2023-06-01T02:11:25;13.10;1.00
506;DHT22;551;48.524;9.056;2023-06-01T02:13:51;13.10;1.00
506;DHT22;551;48.524;9.056;2023-06-01T02:16:17;13.10;1.00
506;DHT22;551;48.524;9.056;2023-06-01T02:18:44;13.10;1.00
506;DHT22;551;48.524;9.056;2023-06-01T02:21:12;13.10;1.00
506;DHT22;551;48.524;9.056;2023-06-01T02:23:38;13.10;1.00
506;DHT22;551;48.524;9.056;2023-06-01T02:26:08;13.10;1.00
506;DHT22;551;48.524;9.056;2023-06-01T02:28:39;13.10;1.00
506;DHT22;551;48.524;9.056;2023-06-01T02:31:06;13.10;1.00
506;DHT22;551;48.524;9.056;2023-06-01T02:33:32;13.10;1.00
506;DHT22;551;48.524;9.056;2023-06-01T02:35:58;13.10;1.00
506;DHT22;551;48.524;9.056;2023-06-01T02:38:23;13.10;1.00
506;DHT22;551;48.524;9.056;2023-06-01T02:40:49;13.10;1.00
506;DHT22;551;48.524;9.056;2023-06-01T02:43:14;13.10;1.00
506;DHT22;551;48.524;9.056;2023-06-01T02:45:40;13.10;1.00
506;DHT22;551;48.524;9.056;2023-06-01T02:48:06;13.10;1.00
506;DHT22;551;48.524;9.056;2023-06-01T02:50:31;13.10;1.00
506;DHT22;551;48.524;9.056;2023-06-01T02:52:57;13.10;1.00
506;DHT22;551;48.524;9.056;2023-06-01T02:55:22;13.00;1.00
506;DHT22;551;48.524;9.056;2023-06-01T02:57:48;13.10;1.00
506;DHT22;551;48.524;9.056;2023-06-01T03:00:13;13.00;1.00
506;DHT22;551;48.524;9.056;2023-06-01T03:02:45;13.00;1.00
506;DHT22;551;48.524;9.056;2023-06-01T03:05:11;12.90;1.00
506;DHT22;551;48.524;9.056;2023-06-01T03:07:44;12.90;1.00
506;DHT22;551;48.524;9.056;2023-06-01T03:10:10;12.90;1.00
506;DHT22;551;48.524;9.056;2023-06-01T03:12:36;12.90;1.00
506;DHT22;551;48.524;9.056;2023-06-01T03:15:02;12.90;1.00
506;DHT22;551;48.524;9.056;2023-06-01T03:17:28;12.80;1.00
506;DHT22;551;48.524;9.056;2023-06-01T03:19:53;12.80;1.00
506;DHT22;551;48.524;9.056;2023-06-01T03:22:19;12.80;1.00
506;DHT22;551;48.524;9.056;2023-06-01T03:24:44;12.70;1.00
506;DHT22;551;48.524;9.056;2023-06-01T03:27:15;12.70;1.00
506;DHT22;551;48.524;9.056;2023-06-01T03:29:40;12.70;1.00
506;DHT22;551;48.524;9.056;2023-06-01T03:32:06;12.70;1.00
506;DHT22;551;48.524;9.056;2023-06-01T03:34:32;12.70;1.00
506;DHT22;551;48.524;9.056;2023-06-01T03:36:58;12.70;1.00
506;DHT22;551;48.524;9.056;2023-06-01T03:39:24;12.70;1.00
506;DHT22;551;48.524;9.056;2023-06-01T03:41:49;12.60;1.00
506;DHT22;551;48.524;9.056;2023-06-01T03:44:15;12.50;1.00
506;DHT22;551;48.524;9.056;2023-06-01T03:46:40;12.40;1.00
506;DHT22;551;48.524;9.056;2023-06-01T03:49:06;12.40;1.00
506;DHT22;551;48.524;9.056;2023-06-01T03:51:31;12.40;1.00
506;DHT22;551;48.524;9.056;2023-06-01T03:53:57;12.30;1.00
506;DHT22;551;48.524;9.056;2023-06-01T03:56:23;12.30;1.00
506;DHT22;551;48.524;9.056;2023-06-01T03:58:49;12.30;1.00
506;DHT22;551;48.524;9.056;2023-06-01T04:01:15;12.30;1.00
506;DHT22;551;48.524;9.056;2023-06-01T04:03:45;12.30;1.00
506;DHT22;551;48.524;9.056;2023-06-01T04:06:11;12.30;1.00
506;DHT22;551;48.524;9.056;2023-06-01T04:08:43;12.30;1.00
506;DHT22;551;48.524;9.056;2023-06-01T04:11:17;12.30;1.00
506;DHT22;551;48.524;9.056;2023-06-01T04:13:43;12.30;1.00
506;DHT22;551;48.524;9.056;2023-06-01T04:16:12;12.30;1.00
506;DHT22;551;48.524;9.056;2023-06-01T04:18:38;12.30;1.00
506;DHT22;551;48.524;9.056;2023-06-01T04:21:03;12.30;1.00
506;DHT22;551;48.524;9.056;2023-06-01T04:23:32;12.30;1.00
506;DHT22;551;48.524;9.056;2023-06-01T04:25:58;12.30;1.00
506;DHT22;551;48.524;9.056;2023-06-01T04:28:26;12.40;1.00
506;DHT22;551;48.524;9.056;2023-06-01T04:30:52;12.40;1.00
506;DHT22;551;48.524;9.056;2023-06-01T04:33:17;12.40;1.00
506;DHT22;551;48.524;9.056;2023-06-01T04:35:43;12.50;1.00
506;DHT22;551;48.524;9.056;2023-06-01T04:38:09;12.50;1.00
506;DHT22;551;48.524;9.056;2023-06-01T04:40:35;12.60;1.00
506;DHT22;551;48.524;9.056;2023-06-01T04:43:00;12.70;1.00
506;DHT22;551;48.524;9.056;2023-06-01T04:45:28;12.80;1.00
506;DHT22;551;48.524;9.056;2023-06-01T04:47:56;13.10;1.00
506;DHT22;551;48.524;9.056;2023-06-01T04:50:23;13.90;1.00
506;DHT22;551;48.524;9.056;2023-06-01T04:52:48;14.90;1.00
506;DHT22;551;48.524;9.056;2023-06-01T04:55:15;16.10;1.00
506;DHT22;551;48.524;9.056;2023-06-01T04:57:42;17.20;1.00
506;DHT22;551;48.524;9.056;2023-06-01T05:00:14;18.10;1.00
506;DHT22;551;48.524;9.056;2023-06-01T05:02:44;19.10;1.00
506;DHT22;551;48.524;9.056;2023-06-01T05:05:10;20.30;1.00
506;DHT22;551;48.524;9.056;2023-06-01T05:07:37;21.40;1.00
506;DHT22;551;48.524;9.056;2023-06-01T05:10:03;22.20;1.00
506;DHT22;551;48.524;9.056;2023-06-01T05:12:31;23.00;1.00
506;DHT22;551;48.524;9.056;2023-06-01T05:14:57;23.50;1.00
506;DHT22;551;48.524;9.056;2023-06-01T05:17:23;24.30;1.00
506;DHT22;551;48.524;9.056;2023-06-01T05:19:48;24.90;1.00
506;DHT22;551;48.524;9.056;2023-06-01T05:22:14;25.40;1.00
506;DHT22;551;48.524;9.056;2023-06-01T05:24:39;25.60;1.00
506;DHT22;551;48.524;9.056;2023-06-01T05:27:05;26.60;1.00
506;DHT22;551;48.524;9.056;2023-06-01T05:29:31;27.20;1.00
506;DHT22;551;48.524;9.056;2023-06-01T05:31:57;27.20;1.00
506;DHT22;551;48.524;9.056;2023-06-01T05:34:22;28.00;1.00
506;DHT22;551;48.524;9.056;2023-06-01T05:36:48;28.60;1.00
506;DHT22;551;48.524;9.056;2023-06-01T05:39:16;29.20;1.00
506;DHT22;551;48.524;9.056;2023-06-01T05:41:42;29.30;1.00
506;DHT22;551;48.524;9.056;2023-06-01T05:44:08;29.90;1.00
506;DHT22;551;48.524;9.056;2023-06-01T05:46:33;30.30;1.00
506;DHT22;551;48.524;9.056;2023-06-01T05:48:59;31.10;1.00
506;DHT22;551;48.524;9.056;2023-06-01T05:51:25;30.80;1.00
506;DHT22;551;48.524;9.056;2023-06-01T05:53:51;31.00;1.00
506;DHT22;551;48.524;9.056;2023-06-01T05:56:16;31.30;1.00
506;DHT22;551;48.524;9.056;2023-06-01T05:58:42;31.70;1.00
506;DHT22;551;48.524;9.056;2023-06-01T06:01:08;32.00;1.00
506;DHT22;551;48.524;9.056;2023-06-01T06:03:35;32.10;1.00
506;DHT22;551;48.524;9.056;2023-06-01T06:06:01;32.30;1.00
506;DHT22;551;48.524;9.056;2023-06-01T06:08:26;32.30;1.00
506;DHT22;551;48.524;9.056;2023-06-01T06:10:52;32.50;1.00
506;DHT22;551;48.524;9.056;2023-06-01T06:13:18;32.80;1.00
506;DHT22;551;48.524;9.056;2023-06-01T06:15:44;32.90;1.00
506;DHT22;551;48.524;9.056;2023-06-01T06:18:10;33.40;1.00
506;DHT22;551;48.524;9.056;2023-06-01T06:20:35;33.60;1.00
506;DHT22;551;48.524;9.056;2023-06-01T06:23:01;33.80;1.00
506;DHT22;551;48.524;9.056;2023-06-01T06:25:26;34.30;1.00
506;DHT22;551;48.524;9.056;2023-06-01T06:27:52;34.80;1.00
506;DHT22;551;48.524;9.056;2023-06-01T06:30:17;35.10;1.00
506;DHT22;551;48.524;9.056;2023-06-01T06:32:43;35.60;1.00
506;DHT22;551;48.524;9.056;2023-06-01T06:35:09;36.10;1.00
506;DHT22;551;48.524;9.056;2023-06-01T06:37:41;36.80;1.00
506;DHT22;551;48.524;9.056;2023-06-01T06:40:07;37.20;1.00
506;DHT22;551;48.524;9.056;2023-06-01T06:42:33;37.40;1.00
506;DHT22;551;48.524;9.056;2023-06-01T06:44:58;37.90;1.00
506;DHT22;551;48.524;9.056;2023-06-01T06:47:24;38.20;1.00
506;DHT22;551;48.524;9.056;2023-06-01T06:49:50;38.00;1.00
506;DHT22;551;48.524;9.056;2023-06-01T06:52:16;37.80;1.00
506;DHT22;551;48.524;9.056;2023-06-01T06:54:43;38.30;1.00
506;DHT22;551;48.524;9.056;2023-06-01T06:57:08;38.60;1.00
506;DHT22;551;48.524;9.056;2023-06-01T06:59:35;39.50;1.00
506;DHT22;551;48.524;9.056;2023-06-01T07:02:04;39.80;1.00
506;DHT22;551;48.524;9.056;2023-06-01T07:04:30;40.60;1.00
506;DHT22;551;48.524;9.056;2023-06-01T07:06:56;41.30;1.00
506;DHT22;551;48.524;9.056;2023-06-01T07:09:22;42.00;1.00
506;DHT22;551;48.524;9.056;2023-06-01T07:11:47;42.40;1.00
506;DHT22;551;48.524;9.056;2023-06-01T07:14:16;42.60;1.00
506;DHT22;551;48.524;9.056;2023-06-01T07:16:42;42.60;1.00
506;DHT22;551;48.524;9.056;2023-06-01T07:19:08;42.50;1.00
506;DHT22;551;48.524;9.056;2023-06-01T07:21:34;42.50;1.00
506;DHT22;551;48.524;9.056;2023-06-01T07:24:01;41.60;1.00
506;DHT22;551;48.524;9.056;2023-06-01T07:26:29;41.20;1.00
506;DHT22;551;48.524;9.056;2023-06-01T07:28:55;41.40;1.00
506;DHT22;551;48.524;9.056;2023-06-01T07:31:22;41.60;1.00
506;DHT22;551;48.524;9.056;2023-06-01T07:33:48;41.70;1.00
506;DHT22;551;48.524;9.056;2023-06-01T07:36:18;42.50;1.00
506;DHT22;551;48.524;9.056;2023-06-01T07:38:45;42.00;1.00
506;DHT22;551;48.524;9.056;2023-06-01T07:41:11;41.70;1.00
506;DHT22;551;48.524;9.056;2023-06-01T07:43:37;41.20;1.00
506;DHT22;551;48.524;9.056;2023-06-01T07:46:03;42.80;1.00
506;DHT22;551;48.524;9.056;2023-06-01T07:48:29;42.90;1.00
506;DHT22;551;48.524;9.056;2023-06-01T07:50:54;42.60;1.00
506;DHT22;551;48.524;9.056;2023-06-01T07:53:20;44.10;1.00
506;DHT22;551;48.524;9.056;2023-06-01T07:55:46;44.70;1.00
506;DHT22;551;48.524;9.056;2023-06-01T07:58:14;44.90;1.00
506;DHT22;551;48.524;9.056;2023-06-01T08:00:39;45.20;1.00
506;DHT22;551;48.524;9.056;2023-06-01T08:03:05;44.80;1.00
506;DHT22;551;48.524;9.056;2023-06-01T08:05:31;45.80;1.00
506;DHT22;551;48.524;9.056;2023-06-01T08:07:56;45.90;1.00
506;DHT22;551;48.524;9.056;2023-06-01T08:10:22;46.30;1.00
506;DHT22;551;48.524;9.056;2023-06-01T08:12:48;46.30;1.00
506;DHT22;551;48.524;9.056;2023-06-01T08:15:14;46.60;1.00
506;DHT22;551;48.524;9.056;2023-06-01T08:17:42;46.70;1.00
506;DHT22;551;48.524;9.056;2023-06-01T08:20:08;47.20;1.00
506;DHT22;551;48.524;9.056;2023-06-01T08:22:36;47.50;1.00
506;DHT22;551;48.524;9.056;2023-06-01T08:25:02;47.40;1.00
506;DHT22;551;48.524;9.056;2023-06-01T08:27:27;47.30;1.00
506;DHT22;551;48.524;9.056;2023-06-01T08:29:54;47.00;1.00
506;DHT22;551;48.524;9.056;2023-06-01T08:32:19;46.10;1.00
506;DHT22;551;48.524;9.056;2023-06-01T08:34:46;46.00;1.00
506;DHT22;551;48.524;9.056;2023-06-01T08:37:15;47.10;1.00
506;DHT22;551;48.524;9.056;2023-06-01T08:39:40;46.50;1.00
506;DHT22;551;48.524;9.056;2023-06-01T08:42:07;47.50;1.00
506;DHT22;551;48.524;9.056;2023-06-01T08:44:39;48.00;1.00
506;DHT22;551;48.524;9.056;2023-06-01T08:47:05;48.10;1.00
506;DHT22;551;48.524;9.056;2023-06-01T08:49:32;48.20;1.00
506;DHT22;551;48.524;9.056;2023-06-01T08:52:00;47.70;1.00
506;DHT22;551;48.524;9.056;2023-06-01T08:54:27;46.30;1.00
506;DHT22;551;48.524;9.056;2023-06-01T08:56:54;44.60;1.00
506;DHT22;551;48.524;9.056;2023-06-01T08:59:20;43.00;1.00
506;DHT22;551;48.524;9.056;2023-06-01T09:01:46;42.70;1.00
506;DHT22;551;48.524;9.056;2023-06-01T09:04:12;42.80;1.00
506;DHT22;551;48.524;9.056;2023-06-01T09:06:41;42.80;1.00
506;DHT22;551;48.524;9.056;2023-06-01T09:09:06;42.70;1.00
506;DHT22;551;48.524;9.056;2023-06-01T09:11:36;42.10;1.00
506;DHT22;551;48.524;9.056;2023-06-01T09:14:02;41.70;1.00
506;DHT22;551;48.524;9.056;2023-06-01T09:16:38;41.40;1.00
506;DHT22;551;48.524;9.056;2023-06-01T09:19:04;41.50;1.00
506;DHT22;551;48.524;9.056;2023-06-01T09:21:29;41.40;1.00
506;DHT22;551;48.524;9.056;2023-06-01T09:23:55;41.10;1.00
506;DHT22;551;48.524;9.056;2023-06-01T09:26:26;40.70;1.00
506;DHT22;551;48.524;9.056;2023-06-01T09:31:44;41.30;1.00
506;DHT22;551;48.524;9.056;2023-06-01T09:34:16;41.80;1.00
506;DHT22;551;48.524;9.056;2023-06-01T09:36:46;42.00;1.00
506;DHT22;551;48.524;9.056;2023-06-01T09:39:13;41.80;1.00
506;DHT22;551;48.524;9.056;2023-06-01T09:41:55;42.00;1.00
506;DHT22;551;48.524;9.056;2023-06-01T09:44:38;43.10;1.00
506;DHT22;551;48.524;9.056;2023-06-01T09:49:36;44.70;1.00
506;DHT22;551;48.524;9.056;2023-06-01T09:54:35;44.30;1.00
506;DHT22;551;48.524;9.056;2023-06-01T09:57:03;43.00;1.00
506;DHT22;551;48.524;9.056;2023-06-01T09:59:30;43.00;1.00
506;DHT22;551;48.524;9.056;2023-06-01T10:02:04;42.70;1.00
506;DHT22;551;48.524;9.056;2023-06-01T10:04:30;41.90;1.00
506;DHT22;551;48.524;9.056;2023-06-01T10:06:57;42.20;1.00
506;DHT22;551;48.524;9.056;2023-06-01T10:09:24;42.20;1.00
506;DHT22;551;48.524;9.056;2023-06-01T10:11:52;42.20;1.00
506;DHT22;551;48.524;9.056;2023-06-01T10:14:20;41.70;1.00
506;DHT22;551;48.524;9.056;2023-06-01T10:16:51;41.70;1.00
506;DHT22;551;48.524;9.056;2023-06-01T10:19:18;41.90;1.00
506;DHT22;551;48.524;9.056;2023-06-01T10:21:44;42.30;1.00
506;DHT22;551;48.524;9.056;2023-06-01T10:24:19;41.50;1.00
506;DHT22;551;48.524;9.056;2023-06-01T10:29:42;40.80;1.00
506;DHT22;551;48.524;9.056;2023-06-01T10:35:06;41.20;1.00
506;DHT22;551;48.524;9.056;2023-06-01T10:37:33;41.10;1.00
506;DHT22;551;48.524;9.056;2023-06-01T10:40:20;41.00;1.00
506;DHT22;551;48.524;9.056;2023-06-01T10:42:47;40.90;1.00
506;DHT22;551;48.524;9.056;2023-06-01T10:45:38;41.70;1.00
506;DHT22;551;48.524;9.056;2023-06-01T10:48:06;41.90;1.00
506;DHT22;551;48.524;9.056;2023-06-01T10:50:33;42.00;1.00
506;DHT22;551;48.524;9.056;2023-06-01T10:56:23;40.90;1.00
506;DHT22;551;48.524;9.056;2023-06-01T11:01:38;41.10;1.00
506;DHT22;551;48.524;9.056;2023-06-01T11:04:04;40.90;1.00
506;DHT22;551;48.524;9.056;2023-06-01T11:06:33;40.80;1.00
506;DHT22;551;48.524;9.056;2023-06-01T11:09:02;40.90;1.00
506;DHT22;551;48.524;9.056;2023-06-01T11:14:22;40.70;1.00
506;DHT22;551;48.524;9.056;2023-06-01T11:16:49;40.60;1.00
506;DHT22;551;48.524;9.056;2023-06-01T11:19:26;40.70;1.00
506;DHT22;551;48.524;9.056;2023-06-01T11:21:59;40.40;1.00
506;DHT22;551;48.524;9.056;2023-06-01T11:24:34;39.70;1.00
506;DHT22;551;48.524;9.056;2023-06-01T11:27:08;40.20;1.00
506;DHT22;551;48.524;9.056;2023-06-01T11:29:34;40.50;1.00
506;DHT22;551;48.524;9.056;2023-06-01T11:32:04;41.00;1.00
506;DHT22;551;48.524;9.056;2023-06-01T11:34:38;41.70;1.00
506;DHT22;551;48.524;9.056;2023-06-01T11:37:15;41.70;1.00
506;DHT22;551;48.524;9.056;2023-06-01T11:39:42;42.10;1.00
506;DHT22;551;48.524;9.056;2023-06-01T11:42:08;42.40;1.00
506;DHT22;551;48.524;9.056;2023-06-01T11:44:38;42.60;1.00
506;DHT22;551;48.524;9.056;2023-06-01T11:47:05;42.60;1.00
506;DHT22;551;48.524;9.056;2023-06-01T11:49:49;41.90;1.00
506;DHT22;551;48.524;9.056;2023-06-01T11:52:19;40.80;1.00
506;DHT22;551;48.524;9.056;2023-06-01T11:54:45;39.80;1.00
506;DHT22;551;48.524;9.056;2023-06-01T11:57:11;38.30;1.00
506;DHT22;551;48.524;9.056;2023-06-01T11:59:48;36.90;1.00
506;DHT22;551;48.524;9.056;2023-06-01T12:02:17;36.00;1.00
506;DHT22;551;48.524;9.056;2023-06-01T12:05:00;35.30;1.00
506;DHT22;551;48.524;9.056;2023-06-01T12:07:31;34.70;1.00
506;DHT22;551;48.524;9.056;2023-06-01T12:09:58;34.20;1.00
506;DHT22;551;48.524;9.056;2023-06-01T12:12:26;33.80;1.00
506;DHT22;551;48.524;9.056;2023-06-01T12:14:54;33.30;1.00
506;DHT22;551;48.524;9.056;2023-06-01T12:17:20;32.80;1.00
506;DHT22;551;48.524;9.056;2023-06-01T12:19:49;32.70;1.00
506;DHT22;551;48.524;9.056;2023-06-01T12:22:15;32.30;1.00
506;DHT22;551;48.524;9.056;2023-06-01T12:24:42;32.10;1.00
506;DHT22;551;48.524;9.056;2023-06-01T12:27:17;32.00;1.00
506;DHT22;551;48.524;9.056;2023-06-01T12:29:46;32.00;1.00
506;DHT22;551;48.524;9.056;2023-06-01T12:32:13;31.70;1.00
506;DHT22;551;48.524;9.056;2023-06-01T12:34:41;31.50;1.00
506;DHT22;551;48.524;9.056;2023-06-01T12:37:17;31.30;1.00
506;DHT22;551;48.524;9.056;2023-06-01T12:39:43;31.20;1.00
506;DHT22;551;48.524;9.056;2023-06-01T12:42:10;31.20;1.00
506;DHT22;551;48.524;9.056;2023-06-01T12:44:37;31.20;1.00
506;DHT22;551;48.524;9.056;2023-06-01T12:47:02;31.10;1.00
506;DHT22;551;48.524;9.056;2023-06-01T12:49:29;31.00;1.00
506;DHT22;551;48.524;9.056;2023-06-01T12:51:55;30.70;1.00
506;DHT22;551;48.524;9.056;2023-06-01T12:54:20;30.50;1.00
506;DHT22;551;48.524;9.056;2023-06-01T12:56:50;30.20;1.00
506;DHT22;551;48.524;9.056;2023-06-01T12:59:15;30.20;1.00
506;DHT22;551;48.524;9.056;2023-06-01T13:01:42;30.20;1.00
506;DHT22;551;48.524;9.056;2023-06-01T13:04:08;30.10;1.00
506;DHT22;551;48.524;9.056;2023-06-01T13:06:34;30.30;1.00
506;DHT22;551;48.524;9.056;2023-06-01T13:09:00;30.30;1.00
506;DHT22;551;48.524;9.056;2023-06-01T13:11:26;30.20;1.00
506;DHT22;551;48.524;9.056;2023-06-01T13:13:52;30.10;1.00
506;DHT22;551;48.524;9.056;2023-06-01T13:16:19;30.00;1.00
506;DHT22;551;48.524;9.056;2023-06-01T13:18:45;30.00;1.00
506;DHT22;551;48.524;9.056;2023-06-01T13:21:11;30.00;1.00
506;DHT22;551;48.524;9.056;2023-06-01T13:23:36;30.10;1.00
506;DHT22;551;48.524;9.056;2023-06-01T13:26:02;30.20;1.00
506;DHT22;551;48.524;9.056;2023-06-01T13:28:28;30.40;1.00
506;DHT22;551;48.524;9.056;2023-06-01T13:30:53;30.40;1.00
506;DHT22;551;48.524;9.056;2023-06-01T13:33:20;30.40;1.00
506;DHT22;551;48.524;9.056;2023-06-01T13:35:46;30.20;1.00
506;DHT22;551;48.524;9.056;2023-06-01T13:38:12;30.00;1.00
506;DHT22;551;48.524;9.056;2023-06-01T13:40:38;29.80;1.00
506;DHT22;551;48.524;9.056;2023-06-01T13:43:04;29.80;1.00
506;DHT22;551;48.524;9.056;2023-06-01T13:45:29;29.90;1.00
506;DHT22;551;48.524;9.056;2023-06-01T13:47:56;29.70;1.00
506;DHT22;551;48.524;9.056;2023-06-01T13:50:21;29.40;1.00
506;DHT22;551;48.524;9.056;2023-06-01T13:52:47;29.30;1.00
506;DHT22;551;48.524;9.056;2023-06-01T13:55:12;29.30;1.00
506;DHT22;551;48.524;9.056;2023-06-01T13:57:40;29.30;1.00
506;DHT22;551;48.524;9.056;2023-06-01T14:00:06;29.20;1.00
506;DHT22;551;48.524;9.056;2023-06-01T14:02:34;29.10;1.00
506;DHT22;551;48.524;9.056;2023-06-01T14:05:00;29.00;1.00
506;DHT22;551;48.524;9.056;2023-06-01T14:07:25;29.00;1.00
506;DHT22;551;48.524;9.056;2023-06-01T14:09:51;29.00;1.00
506;DHT22;551;48.524;9.056;2023-06-01T14:12:17;29.20;1.00
506;DHT22;551;48.524;9.056;2023-06-01T14:14:43;29.20;1.00
506;DHT22;551;48.524;9.056;2023-06-01T14:17:08;29.20;1.00
506;DHT22;551;48.524;9.056;2023-06-01T14:19:34;29.20;1.00
506;DHT22;551;48.524;9.056;2023-06-01T14:21:59;29.20;1.00
506;DHT22;551;48.524;9.056;2023-06-01T14:24:25;29.20;1.00
506;DHT22;551;48.524;9.056;2023-06-01T14:26:50;29.20;1.00
506;DHT22;551;48.524;9.056;2023-06-01T14:29:16;29.30;1.00
506;DHT22;551;48.524;9.056;2023-06-01T14:31:41;29.40;1.00
506;DHT22;551;48.524;9.056;2023-06-01T14:34:07;29.40;1.00
506;DHT22;551;48.524;9.056;2023-06-01T14:36:33;29.30;1.00
506;DHT22;551;48.524;9.056;2023-06-01T14:38:58;29.30;1.00
506;DHT22;551;48.524;9.056;2023-06-01T14:41:24;29.20;1.00
506;DHT22;551;48.524;9.056;2023-06-01T14:43:50;29.10;1.00
506;DHT22;551;48.524;9.056;2023-06-01T14:46:16;29.10;1.00
506;DHT22;551;48.524;9.056;2023-06-01T14:48:41;29.10;1.00
506;DHT22;551;48.524;9.056;2023-06-01T14:51:07;29.10;1.00
506;DHT22;551;48.524;9.056;2023-06-01T14:53:34;29.00;1.00
506;DHT22;551;48.524;9.056;2023-06-01T14:56:00;29.00;1.00
506;DHT22;551;48.524;9.056;2023-06-01T14:58:25;28.90;1.00
506;DHT22;551;48.524;9.056;2023-06-01T15:00:51;29.00;1.00
506;DHT22;551;48.524;9.056;2023-06-01T15:03:16;29.00;1.00
506;DHT22;551;48.524;9.056;2023-06-01T15:05:42;29.00;1.00
506;DHT22;551;48.524;9.056;2023-06-01T15:08:09;29.10;1.00
506;DHT22;551;48.524;9.056;2023-06-01T15:10:35;29.10;1.00
506;DHT22;551;48.524;9.056;2023-06-01T15:13:00;29.00;1.00
506;DHT22;551;48.524;9.056;2023-06-01T15:15:26;29.10;1.00
506;DHT22;551;48.524;9.056;2023-06-01T15:17:52;29.10;1.00
506;DHT22;551;48.524;9.056;2023-06-01T15:20:18;29.20;1.00
506;DHT22;551;48.524;9.056;2023-06-01T15:22:44;29.30;1.00
506;DHT22;551;48.524;9.056;2023-06-01T15:25:09;29.40;1.00
506;DHT22;551;48.524;9.056;2023-06-01T15:27:35;29.60;1.00
506;DHT22;551;48.524;9.056;2023-06-01T15:30:01;29.80;1.00
506;DHT22;551;48.524;9.056;2023-06-01T15:32:27;29.70;1.00
506;DHT22;551;48.524;9.056;2023-06-01T15:34:52;29.80;1.00
506;DHT22;551;48.524;9.056;2023-06-01T15:37:18;29.80;1.00
506;DHT22;551;48.524;9.056;2023-06-01T15:39:45;29.90;1.00
506;DHT22;551;48.524;9.056;2023-06-01T15:42:10;29.70;1.00
506;DHT22;551;48.524;9.056;2023-06-01T15:44:43;29.90;1.00
506;DHT22;551;48.524;9.056;2023-06-01T15:47:09;30.00;1.00
506;DHT22;551;48.524;9.056;2023-06-01T15:49:35;30.10;1.00
506;DHT22;551;48.524;9.056;2023-06-01T15:52:01;30.20;1.00
506;DHT22;551;48.524;9.056;2023-06-01T15:54:31;30.20;1.00
506;DHT22;551;48.524;9.056;2023-06-01T15:56:56;30.10;1.00
506;DHT22;551;48.524;9.056;2023-06-01T15:59:22;30.10;1.00
506;DHT22;551;48.524;9.056;2023-06-01T16:01:48;30.10;1.00
506;DHT22;551;48.524;9.056;2023-06-01T16:04:13;30.20;1.00
506;DHT22;551;48.524;9.056;2023-06-01T16:06:39;30.30;1.00
506;DHT22;551;48.524;9.056;2023-06-01T16:09:05;30.10;1.00
506;DHT22;551;48.524;9.056;2023-06-01T16:11:31;30.00;1.00
506;DHT22;551;48.524;9.056;2023-06-01T16:13:56;29.90;1.00
506;DHT22;551;48.524;9.056;2023-06-01T16:16:21;30.10;1.00
506;DHT22;551;48.524;9.056;2023-06-01T16:18:47;30.00;1.00
506;DHT22;551;48.524;9.056;2023-06-01T16:21:13;30.00;1.00
506;DHT22;551;48.524;9.056;2023-06-01T16:23:39;29.80;1.00
506;DHT22;551;48.524;9.056;2023-06-01T16:26:05;29.80;1.00
506;DHT22;551;48.524;9.056;2023-06-01T16:28:31;29.70;1.00
506;DHT22;551;48.524;9.056;2023-06-01T16:30:57;29.80;1.00
506;DHT22;551;48.524;9.056;2023-06-01T16:33:22;29.70;1.00
506;DHT22;551;48.524;9.056;2023-06-01T16:35:48;29.60;1.00
506;DHT22;551;48.524;9.056;2023-06-01T16:38:13;29.50;1.00
506;DHT22;551;48.524;9.056;2023-06-01T16:40:39;29.40;1.00
506;DHT22;551;48.524;9.056;2023-06-01T16:43:04;29.50;1.00
506;DHT22;551;48.524;9.056;2023-06-01T16:45:30;29.50;1.00
506;DHT22;551;48.524;9.056;2023-06-01T16:47:55;29.50;1.00
506;DHT22;551;48.524;9.056;2023-06-01T16:50:21;29.50;1.00
506;DHT22;551;48.524;9.056;2023-06-01T16:52:47;29.60;1.00
506;DHT22;551;48.524;9.056;2023-06-01T16:55:12;29.40;1.00
506;DHT22;551;48.524;9.056;2023-06-01T16:57:38;29.20;1.00
506;DHT22;551;48.524;9.056;2023-06-01T17:00:04;29.30;1.00
506;DHT22;551;48.524;9.056;2023-06-01T17:02:30;29.20;1.00
506;DHT22;551;48.524;9.056;2023-06-01T17:04:56;29.20;1.00
506;DHT22;551;48.524;9.056;2023-06-01T17:07:22;29.10;1.00
506;DHT22;551;48.524;9.056;2023-06-01T17:09:48;29.00;1.00
506;DHT22;551;48.524;9.056;2023-06-01T17:12:15;29.00;1.00
506;DHT22;551;48.524;9.056;2023-06-01T17:14:46;28.90;1.00
506;DHT22;551;48.524;9.056;2023-06-01T17:17:13;28.90;1.00
506;DHT22;551;48.524;9.056;2023-06-01T17:19:39;28.80;1.00
506;DHT22;551;48.524;9.056;2023-06-01T17:22:05;28.70;1.00
506;DHT22;551;48.524;9.056;2023-06-01T17:24:31;28.50;1.00